Time;durP1;ratioP1;P1;durP2;ratioP2;P2;SDS_P1;SDS_P2;PMS_P1;PMS_P2;Temp;Humidity;BMP_temperature;BMP_pressure;BME280_temperature;BME280_humidity;BME280_pressure;Samples;Min_cycle;Max_cycle;Signal;HPM_P1;HPM_P2
2021/05/03 00:00:21;;;;;;;26.13;23.45;;;17.30;88.30;;;;;;5087434;28;20126;-68
2021/05/03 00:02:49;;;;;;;28.73;25.67;;;17.50;87.40;;;;;;5087796;28;20028;-67
2021/05/03 00:05:25;;;;;;;26.15;23.35;;;17.70;87.00;;;;;;5088026;28;20028;-64
2021/05/03 00:07:53;;;;;;;25.92;23.30;;;17.90;87.60;;;;;;5087759;28;20126;-67
2021/05/03 00:10:21;;;;;;;26.35;23.63;;;18.00;85.20;;;;;;5088498;28;20030;-68
2021/05/03 00:12:49;;;;;;;27.45;24.55;;;18.10;85.00;;;;;;5088362;28;20031;-67
2021/05/03 00:15:17;;;;;;;24.48;21.92;;;18.20;85.70;;;;;;5087520;28;20625;-68
2021/05/03 00:17:45;;;;;;;23.42;20.92;;;18.50;84.20;;;;;;5088042;28;20024;-67
2021/05/03 00:20:13;;;;;;;23.83;21.52;;;18.60;83.10;;;;;;5088097;28;20020;-64
2021/05/03 00:22:40;;;;;;;22.23;20.02;;;18.80;83.50;;;;;;5089207;28;20046;-63
2021/05/03 00:25:08;;;;;;;22.55;20.17;;;18.90;81.20;;;;;;5088889;28;20089;-67
2021/05/03 00:27:35;;;;;;;23.17;20.88;;;19.10;82.20;;;;;;5087727;28;20020;-63
2021/05/03 00:30:05;;;;;;;22.60;20.25;;;19.20;81.00;;;;;;5087367;28;20036;-65
2021/05/03 00:32:32;;;;;;;24.35;21.95;;;19.50;80.40;;;;;;5087959;28;20020;-67
2021/05/03 00:34:59;;;;;;;21.02;19.02;;;19.60;79.40;;;;;;5085813;28;20538;-68
2021/05/03 00:37:26;;;;;;;20.27;18.20;;;19.80;79.20;;;;;;5070628;28;20437;-63
2021/05/03 00:39:54;;;;;;;27.50;24.60;;;20.00;78.10;;;;;;5087722;28;20024;-69
2021/05/03 00:42:21;;;;;;;24.17;19.20;;;20.20;79.00;;;;;;5087727;28;20587;-63
2021/05/03 00:44:50;;;;;;;21.70;19.42;;;20.20;78.10;;;;;;5087958;28;20024;-69
2021/05/03 00:47:19;;;;;;;22.13;20.02;;;20.40;77.50;;;;;;5087637;28;20059;-63
2021/05/03 00:49:46;;;;;;;24.38;22.05;;;20.50;77.30;;;;;;5088717;28;20376;-71
2021/05/03 00:52:13;;;;;;;24.20;21.88;;;20.70;75.90;;;;;;5088586;28;20034;-63
2021/05/03 00:54:41;;;;;;;26.52;23.65;;;20.80;73.80;;;;;;5086834;28;20833;-67
2021/05/03 00:57:10;;;;;;;24.52;20.27;;;20.60;74.90;;;;;;5088208;28;20734;-63
2021/05/03 00:59:38;;;;;;;26.05;23.42;;;20.70;75.60;;;;;;5090055;28;20095;-66
2021/05/03 01:02:05;;;;;;;21.23;19.13;;;20.70;75.10;;;;;;5087250;28;20028;-66
2021/05/03 01:04:32;;;;;;;24.38;20.58;;;20.90;75.50;;;;;;5067645;28;20403;-72
2021/05/03 01:07:00;;;;;;;24.13;21.63;;;21.10;73.80;;;;;;5067624;28;20050;-71
2021/05/03 01:09:27;;;;;;;22.83;20.42;;;21.40;72.80;;;;;;5087751;28;20126;-66
2021/05/03 01:11:54;;;;;;;23.67;21.35;;;21.60;72.00;;;;;;5088018;28;20060;-62
2021/05/03 01:14:22;;;;;;;23.50;20.85;;;21.70;70.70;;;;;;5086989;28;20074;-67
2021/05/03 01:16:49;;;;;;;22.73;19.35;;;21.90;72.10;;;;;;5087367;28;20032;-71
2021/05/03 01:19:21;;;;;;;29.75;24.00;;;22.00;71.20;;;;;;5086815;28;20055;-63
2021/05/03 01:21:49;;;;;;;26.70;23.88;;;22.10;71.70;;;;;;5088097;28;20537;-63
2021/05/03 01:24:18;;;;;;;32.78;29.33;;;22.10;70.90;;;;;;5087942;28;20040;-65
2021/05/03 01:26:46;;;;;;;31.55;28.27;;;22.30;71.50;;;;;;5088134;28;20019;-67
2021/05/03 01:29:15;;;;;;;37.05;33.15;;;22.40;70.40;;;;;;5087519;28;20785;-67
2021/05/03 01:31:47;;;;;;;42.45;38.22;;;22.50;70.40;;;;;;5087627;28;20301;-68
2021/05/03 01:34:14;;;;;;;38.63;34.45;;;22.50;70.00;;;;;;5089154;28;20492;-65
2021/05/03 01:36:43;;;;;;;41.67;37.20;;;22.60;70.00;;;;;;5088730;28;20032;-63
2021/05/03 01:39:13;;;;;;;43.30;38.90;;;22.70;70.00;;;;;;5091752;28;20028;-63
2021/05/03 01:41:40;;;;;;;52.15;46.70;;;22.90;69.10;;;;;;5090480;28;20024;-65
2021/05/03 01:44:09;;;;;;;56.22;50.08;;;22.90;68.80;;;;;;5091058;28;20372;-67
2021/05/03 01:46:38;;;;;;;51.03;45.45;;;22.90;68.50;;;;;;5089797;28;20020;-63
2021/05/03 01:49:08;;;;;;;55.75;50.03;;;22.90;67.40;;;;;;5089233;28;20099;-65
2021/05/03 01:51:37;;;;;;;54.47;48.83;;;23.00;68.50;;;;;;5090627;28;20030;-63
2021/05/03 01:54:06;;;;;;;41.40;37.15;;;23.20;68.50;;;;;;5087937;28;20027;-63
2021/05/03 01:56:35;;;;;;;44.20;39.63;;;23.40;66.80;;;;;;5087775;28;20653;-66
2021/05/03 01:59:06;;;;;;;46.83;42.10;;;23.50;66.50;;;;;;5087730;28;21079;-65
2021/05/03 02:01:37;;;;;;;31.05;27.85;;;23.50;65.30;;;;;;5087817;28;20081;-72
2021/05/03 02:04:06;;;;;;;35.85;32.15;;;23.50;64.10;;;;;;5082578;28;20107;-66
2021/05/03 02:06:34;;;;;;;36.33;32.42;;;23.60;64.80;;;;;;5087909;28;20030;-71
2021/05/03 02:09:07;;;;;;;39.13;34.63;;;23.60;65.30;;;;;;5087425;28;20035;-72
2021/05/03 02:11:35;;;;;;;25.63;21.80;;;23.70;66.00;;;;;;5087230;28;20027;-64
2021/05/03 02:14:03;;;;;;;35.40;31.38;;;23.80;64.00;;;;;;5085105;28;20024;-65
2021/05/03 02:16:31;;;;;;;35.17;31.58;;;23.90;64.10;;;;;;5086967;28;20475;-64
2021/05/03 02:18:59;;;;;;;36.78;31.20;;;24.10;63.50;;;;;;5086851;28;20145;-65
2021/05/03 02:21:26;;;;;;;40.55;36.15;;;24.20;63.60;;;;;;5087599;28;20018;-64
2021/05/03 02:23:54;;;;;;;35.22;30.85;;;24.20;63.40;;;;;;5087595;28;20076;-65
2021/05/03 02:26:21;;;;;;;31.30;27.98;;;24.30;63.50;;;;;;5084911;28;20024;-71
2021/05/03 02:28:50;;;;;;;29.50;26.38;;;24.20;62.90;;;;;;5087378;28;20081;-67
2021/05/03 02:31:20;;;;;;;27.58;24.63;;;24.30;61.90;;;;;;5086991;28;20158;-72
2021/05/03 02:33:48;;;;;;;29.55;26.30;;;24.40;63.00;;;;;;5084442;23;20055;-66
2021/05/03 02:36:15;;;;;;;29.48;24.27;;;24.50;62.40;;;;;;5084643;28;20027;-64
2021/05/03 02:38:44;;;;;;;29.52;23.60;;;24.60;61.80;;;;;;5081857;28;20012;-71
2021/05/03 02:41:11;;;;;;;29.02;23.90;;;24.60;61.10;;;;;;5084746;28;20012;-63
2021/05/03 02:43:39;;;;;;;26.52;22.48;;;24.70;60.10;;;;;;5086434;28;20024;-63
2021/05/03 02:46:06;;;;;;;27.50;24.70;;;24.80;59.00;;;;;;5085011;28;20016;-67
2021/05/03 02:48:34;;;;;;;26.13;23.25;;;24.90;59.60;;;;;;5067482;28;20031;-63
2021/05/03 02:51:04;;;;;;;24.08;21.40;;;24.90;58.60;;;;;;5082871;28;20048;-63
2021/05/03 02:53:31;;;;;;;24.23;21.75;;;24.80;58.80;;;;;;5083950;28;20016;-65
2021/05/03 02:55:59;;;;;;;25.00;22.40;;;25.00;59.30;;;;;;5083951;28;20530;-65
2021/05/03 02:58:26;;;;;;;24.08;21.52;;;25.00;58.10;;;;;;5084139;28;20476;-67
2021/05/03 03:00:54;;;;;;;24.73;22.08;;;25.10;58.20;;;;;;5084362;28;20457;-67
2021/05/03 03:03:21;;;;;;;23.38;21.05;;;25.30;57.80;;;;;;5082002;28;20573;-65
2021/05/03 03:05:49;;;;;;;27.63;24.90;;;25.30;56.60;;;;;;5082640;28;20070;-71
2021/05/03 03:08:16;;;;;;;32.58;29.30;;;25.50;57.40;;;;;;5085883;28;20020;-65
2021/05/03 03:10:43;;;;;;;25.27;20.08;;;25.60;57.10;;;;;;5083489;28;20296;-68
2021/05/03 03:13:10;;;;;;;25.20;21.88;;;25.70;55.70;;;;;;5085311;28;20139;-72
2021/05/03 03:15:39;;;;;;;23.65;19.73;;;25.80;54.50;;;;;;5084597;28;20020;-63
2021/05/03 03:18:06;;;;;;;20.27;18.10;;;25.80;54.60;;;;;;5085937;28;20031;-67
2021/05/03 03:20:34;;;;;;;21.10;18.90;;;25.80;54.80;;;;;;5085777;28;20024;-68
2021/05/03 03:23:02;;;;;;;22.13;18.35;;;25.80;54.80;;;;;;5082258;28;20024;-64
2021/05/03 03:25:29;;;;;;;25.05;19.30;;;25.90;54.10;;;;;;5085237;28;20492;-65
2021/05/03 03:27:57;;;;;;;23.05;19.55;;;26.00;54.90;;;;;;5084237;28;20574;-65
2021/05/03 03:30:25;;;;;;;25.35;20.40;;;26.00;53.80;;;;;;5085136;28;20059;-71
2021/05/03 03:32:53;;;;;;;27.67;20.27;;;26.10;55.10;;;;;;5085513;28;20036;-66
2021/05/03 03:35:21;;;;;;;21.25;18.48;;;26.30;55.40;;;;;;5084628;28;20035;-70
2021/05/03 03:37:50;;;;;;;20.95;18.42;;;26.40;54.70;;;;;;5084624;28;20032;-64
2021/05/03 03:40:19;;;;;;;22.35;17.17;;;26.40;54.40;;;;;;5084795;28;20115;-65
2021/05/03 03:42:47;;;;;;;23.52;17.00;;;26.10;54.50;;;;;;5085297;28;20486;-71
2021/05/03 03:45:16;;;;;;;17.55;15.40;;;26.10;54.00;;;;;;5085260;28;20122;-64
2021/05/03 03:47:43;;;;;;;21.52;16.35;;;26.10;53.50;;;;;;5082464;28;20020;-71
2021/05/03 03:50:12;;;;;;;16.60;14.13;;;26.20;53.10;;;;;;4379510;28;10000068;-65
2021/05/03 03:52:39;;;;;;;18.60;14.70;;;26.40;51.60;;;;;;5075092;28;20024;-66
2021/05/03 03:55:07;;;;;;;17.23;13.98;;;26.60;50.90;;;;;;5082469;28;20068;-67
2021/05/03 03:57:34;;;;;;;17.92;13.65;;;26.50;51.00;;;;;;5082241;28;20074;-71
2021/05/03 04:00:02;;;;;;;18.00;14.88;;;26.50;50.90;;;;;;5082003;28;20103;-72
2021/05/03 04:02:32;;;;;;;18.10;13.80;;;26.50;51.10;;;;;;5081911;28;20368;-68
2021/05/03 04:26:20;;;;;;;12.45;10.63;;;26.60;49.10;;;;;;5085053;28;20024;-67
2021/05/03 04:28:49;;;;;;;11.38;10.20;;;26.60;49.10;;;;;;5085638;28;20169;-65
2021/05/03 04:31:18;;;;;;;15.90;10.88;;;26.70;48.40;;;;;;5084591;28;20035;-65
2021/05/03 04:33:46;;;;;;;14.48;11.38;;;26.60;48.90;;;;;;5083980;28;20101;-64
2021/05/03 04:36:13;;;;;;;12.38;10.00;;;26.60;47.90;;;;;;5078701;28;20028;-63
2021/05/03 04:38:41;;;;;;;11.80;9.50;;;26.70;48.40;;;;;;5085492;28;20016;-63
2021/05/03 04:41:09;;;;;;;12.35;9.57;;;26.80;48.80;;;;;;5085477;28;20127;-67
2021/05/03 04:43:37;;;;;;;9.68;8.68;;;26.90;48.20;;;;;;5085303;28;20008;-70
2021/05/03 04:46:05;;;;;;;12.05;8.93;;;26.90;48.80;;;;;;5082923;28;20105;-71
2021/05/03 04:48:32;;;;;;;27.10;24.00;;;26.80;48.60;;;;;;5087098;28;20028;-65
2021/05/03 04:51:00;;;;;;;11.23;9.00;;;26.70;47.90;;;;;;5084537;28;20036;-66
2021/05/03 04:53:27;;;;;;;9.82;7.68;;;26.40;47.80;;;;;;5081865;28;20024;-67
2021/05/03 04:55:55;;;;;;;8.52;7.70;;;26.30;48.00;;;;;;5082202;28;20914;-69
2021/05/03 04:58:22;;;;;;;10.48;8.20;;;26.30;47.30;;;;;;5085193;28;20024;-68
2021/05/03 05:00:49;;;;;;;8.65;7.47;;;26.10;48.10;;;;;;5085046;28;20035;-71
2021/05/03 05:03:17;;;;;;;9.57;7.68;;;26.10;49.10;;;;;;5083826;28;20070;-64
2021/05/03 05:05:46;;;;;;;7.75;6.88;;;26.20;48.50;;;;;;5081709;28;20028;-63
2021/05/03 05:08:13;;;;;;;8.15;7.35;;;26.40;47.70;;;;;;5079862;28;20023;-71
2021/05/03 05:10:40;;;;;;;9.38;6.72;;;26.40;47.80;;;;;;5064783;28;20085;-68
2021/05/03 05:13:08;;;;;;;8.52;7.60;;;26.40;47.80;;;;;;5080710;28;20355;-69
2021/05/03 05:15:35;;;;;;;8.98;7.47;;;26.50;48.00;;;;;;5082963;28;20024;-71
2021/05/03 05:18:03;;;;;;;8.95;6.97;;;26.60;48.20;;;;;;5080866;28;20038;-68
2021/05/03 05:20:30;;;;;;;7.65;6.75;;;26.70;48.10;;;;;;5084331;28;20410;-71
2021/05/03 05:22:57;;;;;;;8.23;7.07;;;26.80;46.60;;;;;;5082686;28;20016;-68
2021/05/03 05:25:25;;;;;;;9.38;6.43;;;26.70;47.00;;;;;;5081533;28;20499;-64
2021/05/03 05:27:52;;;;;;;10.23;5.55;;;26.70;47.30;;;;;;5084023;28;20420;-71
2021/05/03 05:30:19;;;;;;;5.47;4.65;;;26.90;47.30;;;;;;5081613;28;20028;-68
2021/05/03 05:32:47;;;;;;;7.35;4.60;;;27.00;46.40;;;;;;5081619;28;20028;-63
2021/05/03 05:35:14;;;;;;;6.75;4.55;;;27.20;45.50;;;;;;5076991;28;20115;-63
2021/05/03 05:37:42;;;;;;;4.90;4.20;;;27.50;45.00;;;;;;5062658;28;20032;-70
2021/05/03 05:40:10;;;;;;;6.28;4.15;;;27.70;43.80;;;;;;5080046;28;20050;-65
2021/05/03 05:42:37;;;;;;;6.03;3.95;;;27.60;44.40;;;;;;5083889;28;20542;-68
2021/05/03 05:45:06;;;;;;;5.40;3.55;;;27.70;43.70;;;;;;5082054;28;20622;-68
2021/05/03 05:47:33;;;;;;;4.32;3.55;;;27.70;43.30;;;;;;5086878;28;20530;-71
2021/05/03 05:50:01;;;;;;;6.45;3.28;;;27.70;43.40;;;;;;5085015;28;20032;-63
2021/05/03 05:52:28;;;;;;;3.75;3.20;;;27.80;43.60;;;;;;5087805;28;20020;-68
2021/05/03 05:54:55;;;;;;;5.47;3.40;;;27.80;43.60;;;;;;5085864;28;20425;-71
2021/05/03 05:57:22;;;;;;;5.68;3.25;;;27.90;43.70;;;;;;5086973;28;20016;-63
2021/05/03 05:59:50;;;;;;;4.80;3.42;;;28.00;43.60;;;;;;5086007;28;20024;-65
2021/05/03 06:02:17;;;;;;;6.28;3.25;;;27.80;43.40;;;;;;5086506;28;20383;-71
2021/05/03 06:04:44;;;;;;;5.97;3.90;;;27.70;44.70;;;;;;5086269;28;20023;-68
2021/05/03 06:07:12;;;;;;;6.53;3.55;;;27.50;44.50;;;;;;5087325;28;20018;-64
2021/05/03 06:09:39;;;;;;;5.65;3.20;;;27.20;45.60;;;;;;5086632;28;20020;-65
2021/05/03 06:12:07;;;;;;;5.38;3.05;;;27.00;45.60;;;;;;5086527;28;20388;-68
2021/05/03 06:14:34;;;;;;;6.20;3.05;;;26.90;46.30;;;;;;5086066;28;20016;-64
2021/05/03 06:17:02;;;;;;;3.47;3.13;;;26.80;46.10;;;;;;5087309;28;20081;-68
2021/05/03 06:19:29;;;;;;;3.45;2.90;;;26.60;46.80;;;;;;5086932;28;20487;-64
2021/05/03 06:21:56;;;;;;;4.97;3.00;;;26.40;46.50;;;;;;5087559;28;20020;-68
2021/05/03 06:24:24;;;;;;;4.65;3.47;;;26.30;47.10;;;;;;5086413;28;20024;-69
2021/05/03 06:26:51;;;;;;;4.35;3.03;;;25.80;48.10;;;;;;5085684;28;20024;-68
2021/05/03 06:29:18;;;;;;;3.60;2.97;;;25.40;49.00;;;;;;5083550;28;20028;-64
2021/05/03 06:31:47;;;;;;;5.00;3.15;;;25.20;49.80;;;;;;5085703;28;20363;-64
2021/05/03 06:34:14;;;;;;;6.68;3.47;;;25.00;50.20;;;;;;5078192;28;20040;-71
2021/05/03 06:36:41;;;;;;;6.10;2.90;;;24.90;50.70;;;;;;5085810;28;20480;-71
2021/05/03 06:39:09;;;;;;;6.00;3.55;;;24.60;51.00;;;;;;5085760;28;20016;-71
2021/05/03 06:41:36;;;;;;;4.65;2.97;;;24.40;52.10;;;;;;5086757;28;20360;-71
2021/05/03 06:44:03;;;;;;;6.00;2.97;;;24.10;52.20;;;;;;5066929;28;20016;-64
2021/05/03 06:46:31;;;;;;;3.38;2.35;;;23.80;53.80;;;;;;5085583;28;20252;-68
2021/05/03 06:48:58;;;;;;;5.50;3.88;;;23.50;54.70;;;;;;5082507;28;20494;-71
2021/05/03 06:51:25;;;;;;;5.18;4.03;;;23.10;55.90;;;;;;5081869;28;20147;-69
2021/05/03 06:53:52;;;;;;;4.50;2.65;;;22.70;57.00;;;;;;5081938;28;21215;-70
2021/05/03 06:56:20;;;;;;;6.63;3.72;;;22.50;57.60;;;;;;5063375;28;20466;-67
2021/05/03 06:58:47;;;;;;;9.02;4.57;;;22.30;58.60;;;;;;5082159;28;20107;-65
2021/05/03 07:01:14;;;;;;;6.78;4.88;;;22.10;58.70;;;;;;5080693;28;20020;-66
2021/05/03 07:03:43;;;;;;;6.60;4.25;;;22.00;59.50;;;;;;5081755;28;20494;-65
2021/05/03 07:06:13;;;;;;;11.20;5.95;;;21.80;59.90;;;;;;5079132;28;20024;-74
2021/05/03 07:08:42;;;;;;;6.63;5.20;;;21.70;60.70;;;;;;5082490;28;20020;-71
2021/05/03 07:11:15;;;;;;;6.05;3.05;;;21.60;61.00;;;;;;5080231;28;20020;-62
2021/05/03 07:13:43;;;;;;;5.50;4.28;;;21.50;61.10;;;;;;5082101;28;20043;-71
2021/05/03 07:16:10;;;;;;;5.88;4.20;;;21.40;61.70;;;;;;5082879;28;20120;-65
2021/05/03 07:18:39;;;;;;;5.78;3.65;;;21.30;62.20;;;;;;5080937;28;20053;-70
2021/05/03 07:21:07;;;;;;;6.15;4.63;;;21.20;62.50;;;;;;5082276;28;20082;-65
2021/05/03 07:23:34;;;;;;;7.35;5.85;;;21.10;63.40;;;;;;5084140;28;20031;-65
2021/05/03 07:26:03;;;;;;;6.40;4.55;;;21.00;63.70;;;;;;5082496;28;20024;-64
2021/05/03 07:28:30;;;;;;;6.15;3.83;;;20.90;64.40;;;;;;5082545;28;20093;-66
2021/05/03 07:30:58;;;;;;;6.32;4.18;;;20.70;64.70;;;;;;5081420;28;20048;-66
2021/05/03 07:33:27;;;;;;;6.45;4.05;;;20.60;65.00;;;;;;5080008;28;20047;-65
2021/05/03 07:35:55;;;;;;;7.22;3.60;;;20.50;65.40;;;;;;5082073;28;20028;-65
2021/05/03 07:38:22;;;;;;;9.15;4.18;;;20.40;66.00;;;;;;5081829;28;20181;-65
2021/05/03 07:40:50;;;;;;;5.07;3.63;;;20.40;66.50;;;;;;5083046;28;20557;-65
2021/05/03 07:43:17;;;;;;;25.38;17.38;;;20.40;66.50;;;;;;5083077;28;20329;-70
2021/05/03 07:45:44;;;;;;;12.40;8.73;;;20.40;66.10;;;;;;5082266;28;20067;-66
2021/05/03 07:48:12;;;;;;;8.25;5.15;;;20.50;66.30;;;;;;5084415;28;20183;-65
2021/05/03 07:50:41;;;;;;;8.13;3.50;;;20.50;67.00;;;;;;5064746;28;20043;-65
2021/05/03 07:53:08;;;;;;;4.25;2.65;;;20.50;66.60;;;;;;5084113;28;20167;-65
2021/05/03 07:55:36;;;;;;;6.63;2.75;;;20.50;66.80;;;;;;5084881;28;20032;-71
2021/05/03 07:58:04;;;;;;;6.57;2.45;;;20.50;67.30;;;;;;5087361;28;20034;-70
2021/05/03 08:00:32;;;;;;;4.93;2.45;;;20.40;67.20;;;;;;5087808;28;20035;-68
2021/05/03 08:03:02;;;;;;;4.80;1.95;;;20.30;67.40;;;;;;5086507;28;20035;-67
2021/05/03 08:05:29;;;;;;;3.75;2.03;;;20.30;67.50;;;;;;5086548;28;20134;-68
2021/05/03 08:07:57;;;;;;;5.22;2.03;;;20.20;67.60;;;;;;5089103;28;20074;-68
2021/05/03 08:10:24;;;;;;;3.55;2.03;;;20.20;67.90;;;;;;5088220;28;20024;-69
2021/05/03 08:12:52;;;;;;;3.88;2.03;;;20.10;68.40;;;;;;5068103;28;20057;-68
2021/05/03 08:15:22;;;;;;;6.03;2.45;;;20.00;68.50;;;;;;5081078;28;20034;-70
2021/05/03 08:17:50;;;;;;;5.05;2.22;;;20.00;69.00;;;;;;5064925;28;20425;-69
2021/05/03 08:20:18;;;;;;;4.78;2.20;;;19.90;69.10;;;;;;5082619;28;20016;-74
2021/05/03 08:22:47;;;;;;;3.72;1.90;;;19.90;69.20;;;;;;5082481;28;20479;-66
2021/05/03 08:25:15;;;;;;;4.63;2.28;;;19.80;69.10;;;;;;5083470;28;20031;-70
2021/05/03 08:27:43;;;;;;;5.25;3.30;;;19.80;69.30;;;;;;5083763;28;20020;-69
2021/05/03 08:30:10;;;;;;;8.55;6.80;;;19.80;69.30;;;;;;5084188;28;20028;-66
2021/05/03 08:32:38;;;;;;;5.45;3.92;;;19.80;69.30;;;;;;5083568;28;20032;-66
2021/05/03 08:35:06;;;;;;;4.93;3.35;;;19.80;69.20;;;;;;5083362;28;20048;-72
2021/05/03 08:37:34;;;;;;;4.18;3.10;;;19.80;69.60;;;;;;5083292;28;20468;-66
2021/05/03 08:40:01;;;;;;;4.55;3.53;;;19.80;69.80;;;;;;5083067;28;20024;-66
2021/05/03 08:42:28;;;;;;;5.50;2.60;;;19.80;70.20;;;;;;5082540;28;20515;-66
2021/05/03 08:44:57;;;;;;;3.47;2.25;;;19.80;70.20;;;;;;5063366;28;20472;-64
2021/05/03 08:47:28;;;;;;;2.97;2.17;;;19.80;71.10;;;;;;5081223;28;20082;-71
2021/05/03 08:50:03;;;;;;;7.53;6.72;;;19.80;71.00;;;;;;5082913;28;20109;-64
2021/05/03 08:52:43;;;;;;;9.73;7.97;;;19.70;71.30;;;;;;5080877;28;20486;-72
2021/05/03 08:55:14;;;;;;;22.50;15.50;;;19.60;71.90;;;;;;5080704;28;20387;-70
2021/05/03 08:57:42;;;;;;;8.43;4.63;;;19.60;73.00;;;;;;5082366;28;20070;-65
2021/05/03 09:00:14;;;;;;;9.40;5.57;;;19.60;74.20;;;;;;5064521;28;20035;-70
2021/05/03 09:02:44;;;;;;;;;;;19.70;76.20;;;;;;5082129;28;20016;-62
2021/05/03 09:05:11;;;;;;;9.13;4.93;;;19.70;77.10;;;;;;5082465;28;20463;-73
2021/05/03 09:07:50;;;;;;;9.05;4.68;;;19.70;77.80;;;;;;5081086;28;20032;-67
2021/05/03 09:10:20;;;;;;;8.68;5.30;;;19.70;78.40;;;;;;5082171;28;20059;-62
2021/05/03 09:12:48;;;;;;;9.70;5.07;;;19.70;79.00;;;;;;5081135;28;20106;-65
2021/05/03 09:15:24;;;;;;;10.77;5.53;;;19.60;79.80;;;;;;5080150;28;20442;-68
2021/05/03 09:17:53;;;;;;;10.40;6.00;;;19.50;79.80;;;;;;5079807;28;20042;-64
2021/05/03 09:20:26;;;;;;;15.15;6.43;;;19.50;80.10;;;;;;5060354;28;20020;-68
2021/05/03 09:23:19;;;;;;;12.27;6.47;;;19.40;79.80;;;;;;5080554;28;20181;-65
2021/05/03 09:25:52;;;;;;;11.82;6.03;;;19.30;80.30;;;;;;5080205;28;20020;-63
2021/05/03 09:28:31;;;;;;;14.70;5.88;;;19.30;80.30;;;;;;5077981;28;20070;-65
2021/05/03 09:30:59;;;;;;;11.95;5.45;;;19.20;80.20;;;;;;5081529;28;20020;-66
2021/05/03 09:33:38;;;;;;;6.80;4.10;;;19.20;80.60;;;;;;5064564;28;20396;-66
2021/05/03 09:36:13;;;;;;;6.43;4.00;;;19.20;80.20;;;;;;5080338;28;20446;-67
2021/05/03 09:38:48;;;;;;;5.00;3.50;;;19.10;80.60;;;;;;5080928;28;20035;-65
2021/05/03 09:41:25;;;;;;;4.93;3.22;;;19.10;81.10;;;;;;5076322;28;20024;-68
2021/05/03 09:43:59;;;;;;;4.90;2.70;;;19.00;81.80;;;;;;5080000;28;20020;-68
2021/05/03 09:46:39;;;;;;;4.82;2.72;;;19.00;82.50;;;;;;5062509;28;20057;-65
2021/05/03 09:49:18;;;;;;;4.22;2.47;;;19.00;82.80;;;;;;5078185;28;20063;-69
2021/05/03 09:51:49;;;;;;;7.07;2.45;;;18.90;83.10;;;;;;5077882;28;20024;-67
2021/05/03 09:54:25;;;;;;;8.38;2.65;;;18.90;83.50;;;;;;5079029;28;20050;-68
2021/05/03 09:56:54;;;;;;;5.38;2.40;;;18.80;84.30;;;;;;5076923;28;20035;-68
2021/05/03 09:59:50;;;;;;;3.60;2.42;;;18.80;84.20;;;;;;5078170;28;21053;-65
2021/05/03 10:02:32;;;;;;;6.32;3.42;;;18.70;84.40;;;;;;5078158;28;20024;-66
2021/05/03 10:05:16;;;;;;;4.78;3.13;;;18.70;84.60;;;;;;5079088;28;20415;-67
2021/05/03 10:07:51;;;;;;;3.90;3.35;;;18.70;84.90;;;;;;5080175;28;20412;-64
2021/05/03 10:10:36;;;;;;;4.65;3.72;;;18.60;85.70;;;;;;5061115;28;20035;-69
2021/05/03 10:13:03;;;;;;;7.07;4.70;;;18.50;85.20;;;;;;5079947;28;20034;-64
2021/05/03 10:15:31;;;;;;;6.68;2.63;;;18.50;85.30;;;;;;5061644;28;20388;-70
2021/05/03 10:17:58;;;;;;;5.20;3.97;;;18.40;85.10;;;;;;5079873;28;20082;-69
2021/05/03 10:20:26;;;;;;;8.02;4.07;;;18.30;85.00;;;;;;5077209;28;20024;-63
2021/05/03 10:22:56;;;;;;;7.05;3.67;;;18.30;85.10;;;;;;5080942;28;20062;-63
2021/05/03 10:25:24;;;;;;;5.00;3.35;;;18.30;86.10;;;;;;5061685;28;20028;-65
2021/05/03 10:27:53;;;;;;;6.07;3.70;;;18.20;85.60;;;;;;5079304;28;20114;-69
2021/05/03 10:30:23;;;;;;;7.35;4.82;;;18.20;85.90;;;;;;5079065;28;20298;-66
2021/05/03 10:33:20;;;;;;;6.38;3.95;;;18.20;85.90;;;;;;5063245;28;20039;-65
2021/05/03 10:35:50;;;;;;;6.68;3.33;;;18.20;86.50;;;;;;5062371;28;20109;-72
2021/05/03 10:38:31;;;;;;;12.57;10.07;;;18.20;86.10;;;;;;5079480;28;20028;-66
2021/05/03 10:41:00;;;;;;;7.78;4.70;;;18.10;86.30;;;;;;5076947;28;20027;-67
2021/05/03 10:43:38;;;;;;;6.65;3.40;;;18.10;86.60;;;;;;5060817;28;20550;-67
2021/05/03 10:51:43;;;;;;;4.13;3.00;;;17.90;87.70;;;;;;5081339;28;20062;-69
2021/05/03 10:56:58;;;;;;;4.45;2.92;;;17.80;88.10;;;;;;5080381;28;20160;-68
2021/05/03 10:59:26;;;;;;;6.18;3.67;;;17.80;88.70;;;;;;5079723;28;20039;-67
2021/05/03 11:01:54;;;;;;;4.90;3.10;;;17.80;88.60;;;;;;5059234;28;20484;-72
2021/05/03 11:04:29;;;;;;;5.18;2.80;;;17.80;88.40;;;;;;5080047;28;20086;-71
2021/05/03 11:06:59;;;;;;;5.07;3.08;;;17.70;88.60;;;;;;5079495;28;20032;-73
2021/05/03 11:09:33;;;;;;;5.60;3.45;;;17.60;88.70;;;;;;5078230;28;20032;-73
2021/05/03 11:12:07;;;;;;;8.00;3.78;;;17.60;89.30;;;;;;5077219;28;20066;-67
2021/05/03 11:14:40;;;;;;;5.68;3.30;;;17.60;89.30;;;;;;5078980;28;20028;-71
2021/05/03 11:17:16;;;;;;;6.55;3.85;;;17.60;89.20;;;;;;5080784;28;20032;-66
2021/05/03 11:23:03;;;;;;;7.35;3.50;;;17.50;89.60;;;;;;5081409;28;20074;-69
2021/05/03 11:25:34;;;;;;;6.68;3.20;;;17.50;89.20;;;;;;5082709;28;20527;-66
2021/05/03 11:28:18;;;;;;;4.47;3.47;;;17.50;89.30;;;;;;5080319;28;20496;-65
2021/05/03 11:30:56;;;;;;;7.50;3.60;;;17.50;89.50;;;;;;5083751;28;20441;-64
2021/05/03 11:33:42;;;;;;;6.32;4.00;;;17.40;89.80;;;;;;5081169;28;20486;-63
2021/05/03 11:36:19;;;;;;;6.50;3.60;;;17.30;90.10;;;;;;5082808;28;20476;-66
2021/05/03 11:38:56;;;;;;;5.82;3.40;;;17.40;90.30;;;;;;5087520;28;20082;-64
2021/05/03 11:41:34;;;;;;;7.13;3.58;;;17.40;90.50;;;;;;5087587;28;20012;-61
2021/05/03 11:46:41;;;;;;;6.78;3.72;;;17.40;90.50;;;;;;5087487;28;20074;-64
2021/05/03 11:49:12;;;;;;;4.47;3.67;;;17.20;90.60;;;;;;5088383;28;20549;-67
2021/05/03 11:51:58;;;;;;;5.28;3.47;;;17.20;90.80;;;;;;5088279;28;20476;-69
2021/05/03 11:54:27;;;;;;;6.85;3.38;;;17.10;91.10;;;;;;5082394;28;20031;-65
2021/05/03 11:57:01;;;;;;;5.22;3.25;;;17.10;91.10;;;;;;5087809;28;20514;-66
2021/05/03 11:59:29;;;;;;;7.65;2.83;;;17.10;91.10;;;;;;5087649;28;20327;-68
2021/05/03 12:02:05;;;;;;;4.03;3.00;;;17.10;91.20;;;;;;5085981;28;20090;-65
2021/05/03 12:04:44;;;;;;;6.13;3.40;;;17.10;91.30;;;;;;5085870;28;20110;-68
2021/05/03 12:07:22;;;;;;;6.35;3.85;;;17.10;91.20;;;;;;5082015;28;20124;-62
2021/05/03 12:10:03;;;;;;;19.70;12.82;;;17.10;91.40;;;;;;5083815;28;20570;-64
2021/05/03 12:12:47;;;;;;;10.52;7.47;;;17.40;90.40;;;;;;5081442;28;20016;-63
2021/05/03 12:15:21;;;;;;;7.88;5.00;;;17.50;90.20;;;;;;5080875;28;20028;-64
2021/05/03 12:17:50;;;;;;;6.72;3.67;;;17.50;90.10;;;;;;5088115;28;20024;-64
2021/05/03 12:20:20;;;;;;;7.55;3.80;;;17.50;90.00;;;;;;5086251;28;20031;-65
2021/05/03 12:22:58;;;;;;;6.10;3.67;;;17.50;89.80;;;;;;5087397;28;20028;-62
2021/05/03 12:25:28;;;;;;;8.20;4.30;;;17.40;89.60;;;;;;5084083;28;20036;-62
2021/05/03 12:27:55;;;;;;;18.17;5.10;;;17.50;88.80;;;;;;5085300;28;20093;-63
2021/05/03 12:30:25;;;;;;;18.33;5.57;;;17.40;88.70;;;;;;5087352;28;20488;-68
2021/05/03 12:32:52;;;;;;;16.10;4.72;;;17.30;88.90;;;;;;5086118;28;20046;-69
2021/05/03 12:35:23;;;;;;;14.52;4.43;;;17.30;89.20;;;;;;5087494;28;20043;-68
2021/05/03 12:37:50;;;;;;;14.00;5.05;;;17.20;89.70;;;;;;5087695;28;20062;-67
2021/05/03 12:40:23;;;;;;;16.70;5.80;;;17.10;90.30;;;;;;5087520;28;20207;-69
2021/05/03 12:42:55;;;;;;;18.13;5.15;;;17.10;89.70;;;;;;5087207;28;20115;-66
2021/05/03 12:45:36;;;;;;;16.10;4.37;;;17.20;89.20;;;;;;5086440;28;20038;-63
2021/05/03 12:58:36;;;;;;;14.85;4.70;;;17.00;89.40;;;;;;5086673;28;20112;-68
2021/05/03 13:01:22;;;;;;;14.23;4.95;;;17.00;89.60;;;;;;5069144;28;20114;-66
2021/05/03 13:04:08;;;;;;;10.95;4.53;;;17.00;89.70;;;;;;5085215;28;20536;-62
2021/05/03 13:06:49;;;;;;;15.80;4.80;;;16.90;89.90;;;;;;5086684;28;20024;-64
2021/05/03 13:12:45;;;;;;;19.45;4.68;;;17.00;89.30;;;;;;5086106;28;20596;-66
2021/05/03 13:24:30;;;;;;;20.95;5.82;;;16.90;89.90;;;;;;5085892;28;20523;-62
2021/05/03 13:29:45;;;;;;;17.40;6.15;;;16.90;89.40;;;;;;5080659;28;20108;-62
2021/05/03 13:32:25;;;;;;;21.42;5.15;;;16.90;88.70;;;;;;5087500;28;20052;-62
2021/05/03 13:34:53;;;;;;;21.65;5.90;;;17.00;88.10;;;;;;5086897;28;20044;-65
2021/05/03 13:37:22;;;;;;;14.30;5.35;;;17.20;87.80;;;;;;5086043;28;20023;-64
2021/05/03 13:39:51;;;;;;;19.30;6.63;;;17.20;87.70;;;;;;5087230;28;20024;-64
2021/05/03 13:42:18;;;;;;;14.73;4.97;;;17.00;88.50;;;;;;5085894;28;20028;-65
2021/05/03 13:44:46;;;;;;;15.88;5.75;;;16.90;88.70;;;;;;5086677;28;20016;-65
2021/05/03 13:47:14;;;;;;;18.73;5.55;;;16.90;89.30;;;;;;5086128;28;20017;-68
2021/05/03 13:49:41;;;;;;;14.20;5.18;;;16.70;89.50;;;;;;5082855;28;20024;-67
2021/05/03 13:52:09;;;;;;;12.55;5.70;;;16.60;90.00;;;;;;5085128;28;20323;-64